sensor_id;sensor_type;location;lat;lon;timestamp;P1;durP1;ratioP1;P2;durP2;ratioP2
25349;SDS011;13302;48.796;11.978;2023-02-28T00:00:15;2.90;;;2.70;;
25349;SDS011;13302;48.796;11.978;2023-02-28T00:03:03;2.57;;;2.37;;
25349;SDS011;13302;48.796;11.978;2023-02-28T00:05:50;2.30;;;2.10;;
25349;SDS011;13302;48.796;11.978;2023-02-28T00:08:37;2.77;;;2.57;;
25349;SDS011;13302;48.796;11.978;2023-02-28T00:11:24;2.40;;;2.20;;
25349;SDS011;13302;48.796;11.978;2023-02-28T00:14:12;2.20;;;2.10;;
25349;SDS011;13302;48.796;11.978;2023-02-28T00:16:59;2.40;;;2.30;;
25349;SDS011;13302;48.796;11.978;2023-02-28T00:19:47;2.33;;;2.23;;
25349;SDS011;13302;48.796;11.978;2023-02-28T00:22:35;2.20;;;2.10;;
25349;SDS011;13302;48.796;11.978;2023-02-28T00:25:24;2.40;;;2.30;;
25349;SDS011;13302;48.796;11.978;2023-02-28T00:28:11;2.63;;;2.43;;
25349;SDS011;13302;48.796;11.978;2023-02-28T00:30:59;2.67;;;2.47;;
25349;SDS011;13302;48.796;11.978;2023-02-28T00:33:48;2.80;;;2.60;;
25349;SDS011;13302;48.796;11.978;2023-02-28T00:36:35;2.90;;;2.43;;
25349;SDS011;13302;48.796;11.978;2023-02-28T00:39:23;2.63;;;2.50;;
25349;SDS011;13302;48.796;11.978;2023-02-28T00:42:10;2.80;;;2.60;;
25349;SDS011;13302;48.796;11.978;2023-02-28T00:44:57;2.80;;;2.60;;
25349;SDS011;13302;48.796;11.978;2023-02-28T00:47:44;2.67;;;2.47;;
25349;SDS011;13302;48.796;11.978;2023-02-28T00:50:33;2.73;;;2.30;;
25349;SDS011;13302;48.796;11.978;2023-02-28T00:53:20;2.73;;;2.53;;
25349;SDS011;13302;48.796;11.978;2023-02-28T00:56:08;2.70;;;2.50;;
25349;SDS011;13302;48.796;11.978;2023-02-28T00:58:55;2.90;;;2.53;;
25349;SDS011;13302;48.796;11.978;2023-02-28T01:01:43;2.93;;;2.63;;
25349;SDS011;13302;48.796;11.978;2023-02-28T01:04:31;2.97;;;2.40;;
25349;SDS011;13302;48.796;11.978;2023-02-28T01:07:20;2.87;;;2.60;;
25349;SDS011;13302;48.796;11.978;2023-02-28T01:10:07;2.37;;;2.27;;
25349;SDS011;13302;48.796;11.978;2023-02-28T01:12:55;2.67;;;2.47;;
25349;SDS011;13302;48.796;11.978;2023-02-28T01:15:48;2.40;;;2.30;;
25349;SDS011;13302;48.796;11.978;2023-02-28T01:18:38;2.60;;;2.43;;
25349;SDS011;13302;48.796;11.978;2023-02-28T01:21:26;2.87;;;2.67;;
25349;SDS011;13302;48.796;11.978;2023-02-28T01:24:14;2.40;;;2.30;;
25349;SDS011;13302;48.796;11.978;2023-02-28T01:27:01;2.57;;;2.37;;
25349;SDS011;13302;48.796;11.978;2023-02-28T01:29:50;2.67;;;2.47;;
25349;SDS011;13302;48.796;11.978;2023-02-28T01:32:37;2.50;;;2.30;;
25349;SDS011;13302;48.796;11.978;2023-02-28T01:35:24;2.93;;;2.73;;
25349;SDS011;13302;48.796;11.978;2023-02-28T01:38:11;2.50;;;2.30;;
25349;SDS011;13302;48.796;11.978;2023-02-28T01:41:09;2.77;;;2.57;;
25349;SDS011;13302;48.796;11.978;2023-02-28T01:44:05;2.93;;;2.73;;
25349;SDS011;13302;48.796;11.978;2023-02-28T01:46:54;2.63;;;2.43;;
25349;SDS011;13302;48.796;11.978;2023-02-28T01:49:41;2.93;;;2.73;;
25349;SDS011;13302;48.796;11.978;2023-02-28T01:52:28;2.97;;;2.67;;
25349;SDS011;13302;48.796;11.978;2023-02-28T01:55:17;2.60;;;2.40;;
25349;SDS011;13302;48.796;11.978;2023-02-28T01:58:07;2.40;;;2.30;;
25349;SDS011;13302;48.796;11.978;2023-02-28T02:00:55;2.50;;;2.40;;
25349;SDS011;13302;48.796;11.978;2023-02-28T02:03:43;2.73;;;2.50;;
25349;SDS011;13302;48.796;11.978;2023-02-28T02:06:38;3.00;;;2.80;;
25349;SDS011;13302;48.796;11.978;2023-02-28T02:09:29;2.80;;;2.43;;
25349;SDS011;13302;48.796;11.978;2023-02-28T02:12:24;2.97;;;2.77;;
25349;SDS011;13302;48.796;11.978;2023-02-28T02:15:34;2.73;;;2.53;;
25349;SDS011;13302;48.796;11.978;2023-02-28T02:18:39;2.77;;;2.57;;
25349;SDS011;13302;48.796;11.978;2023-02-28T02:21:47;2.67;;;2.57;;
25349;SDS011;13302;48.796;11.978;2023-02-28T02:25:03;2.70;;;2.60;;
25349;SDS011;13302;48.796;11.978;2023-02-28T02:28:04;2.70;;;2.60;;
25349;SDS011;13302;48.796;11.978;2023-02-28T02:37:27;3.17;;;2.97;;
25349;SDS011;13302;48.796;11.978;2023-02-28T02:40:42;3.10;;;2.90;;
25349;SDS011;13302;48.796;11.978;2023-02-28T02:43:35;3.43;;;3.20;;
25349;SDS011;13302;48.796;11.978;2023-02-28T02:46:33;3.47;;;3.27;;
25349;SDS011;13302;48.796;11.978;2023-02-28T02:49:25;3.50;;;3.20;;
25349;SDS011;13302;48.796;11.978;2023-02-28T02:52:17;3.87;;;3.57;;
25349;SDS011;13302;48.796;11.978;2023-02-28T02:55:08;3.10;;;2.90;;
25349;SDS011;13302;48.796;11.978;2023-02-28T02:57:59;3.50;;;3.20;;
25349;SDS011;13302;48.796;11.978;2023-02-28T03:00:51;3.77;;;3.47;;
25349;SDS011;13302;48.796;11.978;2023-02-28T03:03:41;3.70;;;3.40;;
25349;SDS011;13302;48.796;11.978;2023-02-28T03:06:29;3.43;;;3.23;;
25349;SDS011;13302;48.796;11.978;2023-02-28T03:09:17;3.70;;;3.37;;
25349;SDS011;13302;48.796;11.978;2023-02-28T03:12:06;3.60;;;3.30;;
25349;SDS011;13302;48.796;11.978;2023-02-28T03:15:05;3.90;;;3.60;;
25349;SDS011;13302;48.796;11.978;2023-02-28T03:18:01;3.80;;;3.50;;
25349;SDS011;13302;48.796;11.978;2023-02-28T03:27:05;3.40;;;3.10;;
25349;SDS011;13302;48.796;11.978;2023-02-28T03:30:01;3.97;;;3.67;;
25349;SDS011;13302;48.796;11.978;2023-02-28T03:32:55;3.53;;;3.33;;
25349;SDS011;13302;48.796;11.978;2023-02-28T03:35:49;3.70;;;3.40;;
25349;SDS011;13302;48.796;11.978;2023-02-28T03:41:38;3.70;;;3.50;;
25349;SDS011;13302;48.796;11.978;2023-02-28T03:44:38;3.90;;;3.60;;
25349;SDS011;13302;48.796;11.978;2023-02-28T03:47:28;3.90;;;3.60;;
25349;SDS011;13302;48.796;11.978;2023-02-28T03:53:29;4.80;;;4.30;;
25349;SDS011;13302;48.796;11.978;2023-02-28T03:56:22;4.07;;;3.63;;
25349;SDS011;13302;48.796;11.978;2023-02-28T03:59:34;4.63;;;4.23;;
25349;SDS011;13302;48.796;11.978;2023-02-28T04:02:28;4.40;;;4.00;;
25349;SDS011;13302;48.796;11.978;2023-02-28T04:05:15;4.70;;;4.20;;
25349;SDS011;13302;48.796;11.978;2023-02-28T04:08:03;4.20;;;3.90;;
25349;SDS011;13302;48.796;11.978;2023-02-28T04:10:53;4.37;;;4.07;;
25349;SDS011;13302;48.796;11.978;2023-02-28T04:13:47;4.67;;;4.30;;
25349;SDS011;13302;48.796;11.978;2023-02-28T04:16:36;4.60;;;4.20;;
25349;SDS011;13302;48.796;11.978;2023-02-28T04:19:25;4.33;;;3.93;;
25349;SDS011;13302;48.796;11.978;2023-02-28T04:22:12;4.27;;;3.97;;
25349;SDS011;13302;48.796;11.978;2023-02-28T04:25:00;4.50;;;4.10;;
25349;SDS011;13302;48.796;11.978;2023-02-28T04:27:47;4.20;;;3.83;;
25349;SDS011;13302;48.796;11.978;2023-02-28T04:30:34;4.43;;;4.03;;
25349;SDS011;13302;48.796;11.978;2023-02-28T04:33:21;4.60;;;4.23;;
25349;SDS011;13302;48.796;11.978;2023-02-28T04:36:08;4.67;;;4.27;;
25349;SDS011;13302;48.796;11.978;2023-02-28T04:38:55;4.03;;;3.73;;
25349;SDS011;13302;48.796;11.978;2023-02-28T04:41:43;4.77;;;4.37;;
25349;SDS011;13302;48.796;11.978;2023-02-28T04:44:30;4.30;;;4.00;;
25349;SDS011;13302;48.796;11.978;2023-02-28T04:47:17;4.70;;;4.30;;
25349;SDS011;13302;48.796;11.978;2023-02-28T04:50:04;4.97;;;4.47;;
25349;SDS011;13302;48.796;11.978;2023-02-28T04:52:51;4.40;;;4.10;;
25349;SDS011;13302;48.796;11.978;2023-02-28T04:55:38;5.90;;;4.17;;
25349;SDS011;13302;48.796;11.978;2023-02-28T04:58:27;5.20;;;4.70;;
25349;SDS011;13302;48.796;11.978;2023-02-28T05:01:16;4.17;;;3.83;;
25349;SDS011;13302;48.796;11.978;2023-02-28T05:04:12;5.17;;;4.77;;
25349;SDS011;13302;48.796;11.978;2023-02-28T05:07:00;4.53;;;4.17;;
25349;SDS011;13302;48.796;11.978;2023-02-28T05:09:48;4.10;;;3.80;;
25349;SDS011;13302;48.796;11.978;2023-02-28T05:12:35;5.07;;;4.67;;
25349;SDS011;13302;48.796;11.978;2023-02-28T05:15:22;4.50;;;4.10;;
25349;SDS011;13302;48.796;11.978;2023-02-28T05:18:09;5.27;;;4.73;;
25349;SDS011;13302;48.796;11.978;2023-02-28T05:20:56;4.93;;;4.53;;
25349;SDS011;13302;48.796;11.978;2023-02-28T05:23:43;5.07;;;4.63;;
25349;SDS011;13302;48.796;11.978;2023-02-28T05:26:33;4.67;;;4.27;;
25349;SDS011;13302;48.796;11.978;2023-02-28T05:29:21;5.23;;;4.77;;
25349;SDS011;13302;48.796;11.978;2023-02-28T05:32:09;4.77;;;4.40;;
25349;SDS011;13302;48.796;11.978;2023-02-28T05:34:58;5.20;;;4.80;;
25349;SDS011;13302;48.796;11.978;2023-02-28T05:37:44;5.37;;;4.97;;
25349;SDS011;13302;48.796;11.978;2023-02-28T05:40:32;5.17;;;4.67;;
25349;SDS011;13302;48.796;11.978;2023-02-28T05:43:19;5.03;;;4.53;;
25349;SDS011;13302;48.796;11.978;2023-02-28T05:46:06;5.30;;;4.90;;
25349;SDS011;13302;48.796;11.978;2023-02-28T05:48:55;5.60;;;5.10;;
25349;SDS011;13302;48.796;11.978;2023-02-28T05:51:44;4.80;;;4.50;;
25349;SDS011;13302;48.796;11.978;2023-02-28T05:54:31;5.23;;;4.73;;
25349;SDS011;13302;48.796;11.978;2023-02-28T05:57:18;4.60;;;4.30;;
25349;SDS011;13302;48.796;11.978;2023-02-28T06:00:10;5.60;;;5.10;;
25349;SDS011;13302;48.796;11.978;2023-02-28T06:02:58;5.37;;;4.97;;
25349;SDS011;13302;48.796;11.978;2023-02-28T06:05:48;5.47;;;5.07;;
25349;SDS011;13302;48.796;11.978;2023-02-28T06:08:35;5.10;;;4.70;;
25349;SDS011;13302;48.796;11.978;2023-02-28T06:11:22;5.93;;;5.33;;
25349;SDS011;13302;48.796;11.978;2023-02-28T06:14:15;5.50;;;5.00;;
25349;SDS011;13302;48.796;11.978;2023-02-28T06:17:03;5.37;;;4.87;;
25349;SDS011;13302;48.796;11.978;2023-02-28T06:19:51;6.07;;;5.20;;
25349;SDS011;13302;48.796;11.978;2023-02-28T06:22:39;5.23;;;4.83;;
25349;SDS011;13302;48.796;11.978;2023-02-28T06:25:26;5.90;;;5.10;;
25349;SDS011;13302;48.796;11.978;2023-02-28T06:28:14;5.20;;;4.70;;
25349;SDS011;13302;48.796;11.978;2023-02-28T06:31:06;5.47;;;5.00;;
25349;SDS011;13302;48.796;11.978;2023-02-28T06:33:54;5.17;;;4.77;;
25349;SDS011;13302;48.796;11.978;2023-02-28T06:36:42;5.50;;;5.10;;
25349;SDS011;13302;48.796;11.978;2023-02-28T06:39:29;5.53;;;5.03;;
25349;SDS011;13302;48.796;11.978;2023-02-28T06:42:17;5.63;;;5.13;;
25349;SDS011;13302;48.796;11.978;2023-02-28T06:45:04;5.30;;;4.90;;
25349;SDS011;13302;48.796;11.978;2023-02-28T06:47:55;5.93;;;5.30;;
25349;SDS011;13302;48.796;11.978;2023-02-28T06:50:42;5.70;;;5.20;;
25349;SDS011;13302;48.796;11.978;2023-02-28T06:53:29;5.67;;;5.17;;
25349;SDS011;13302;48.796;11.978;2023-02-28T06:56:17;7.17;;;5.40;;
25349;SDS011;13302;48.796;11.978;2023-02-28T06:59:04;5.80;;;5.23;;
25349;SDS011;13302;48.796;11.978;2023-02-28T07:01:51;6.93;;;5.23;;
25349;SDS011;13302;48.796;11.978;2023-02-28T07:04:38;5.67;;;5.17;;
25349;SDS011;13302;48.796;11.978;2023-02-28T07:07:30;6.00;;;5.50;;
25349;SDS011;13302;48.796;11.978;2023-02-28T07:10:17;6.90;;;5.40;;
25349;SDS011;13302;48.796;11.978;2023-02-28T07:13:06;5.17;;;4.77;;
25349;SDS011;13302;48.796;11.978;2023-02-28T07:15:56;5.30;;;4.80;;
25349;SDS011;13302;48.796;11.978;2023-02-28T07:18:44;5.73;;;5.33;;
25349;SDS011;13302;48.796;11.978;2023-02-28T07:21:32;6.10;;;5.60;;
25349;SDS011;13302;48.796;11.978;2023-02-28T07:24:20;5.80;;;5.30;;
25349;SDS011;13302;48.796;11.978;2023-02-28T07:27:07;7.60;;;5.40;;
25349;SDS011;13302;48.796;11.978;2023-02-28T07:29:54;5.37;;;4.87;;
25349;SDS011;13302;48.796;11.978;2023-02-28T07:32:41;5.20;;;4.70;;
25349;SDS011;13302;48.796;11.978;2023-02-28T07:35:30;5.43;;;4.93;;
25349;SDS011;13302;48.796;11.978;2023-02-28T07:38:18;5.97;;;5.20;;
25349;SDS011;13302;48.796;11.978;2023-02-28T07:41:05;5.87;;;5.37;;
25349;SDS011;13302;48.796;11.978;2023-02-28T07:43:53;5.30;;;4.83;;
25349;SDS011;13302;48.796;11.978;2023-02-28T07:46:40;5.67;;;5.17;;
25349;SDS011;13302;48.796;11.978;2023-02-28T07:49:27;5.60;;;5.10;;
25349;SDS011;13302;48.796;11.978;2023-02-28T07:52:14;5.30;;;4.90;;
25349;SDS011;13302;48.796;11.978;2023-02-28T07:55:01;4.93;;;4.50;;
25349;SDS011;13302;48.796;11.978;2023-02-28T07:57:48;5.30;;;4.80;;
25349;SDS011;13302;48.796;11.978;2023-02-28T08:00:35;5.43;;;4.93;;
25349;SDS011;13302;48.796;11.978;2023-02-28T08:03:23;4.90;;;4.50;;
25349;SDS011;13302;48.796;11.978;2023-02-28T08:06:15;4.90;;;4.50;;
25349;SDS011;13302;48.796;11.978;2023-02-28T08:09:03;5.57;;;4.97;;
25349;SDS011;13302;48.796;11.978;2023-02-28T08:11:50;5.87;;;5.37;;
25349;SDS011;13302;48.796;11.978;2023-02-28T08:14:37;5.40;;;5.00;;
25349;SDS011;13302;48.796;11.978;2023-02-28T08:17:26;5.27;;;4.60;;
25349;SDS011;13302;48.796;11.978;2023-02-28T08:20:13;4.70;;;4.30;;
25349;SDS011;13302;48.796;11.978;2023-02-28T08:23:00;5.37;;;4.90;;
25349;SDS011;13302;48.796;11.978;2023-02-28T08:25:54;6.20;;;4.60;;
25349;SDS011;13302;48.796;11.978;2023-02-28T08:28:42;5.13;;;4.63;;
25349;SDS011;13302;48.796;11.978;2023-02-28T08:31:29;5.40;;;4.90;;
25349;SDS011;13302;48.796;11.978;2023-02-28T08:34:16;5.43;;;5.03;;
25349;SDS011;13302;48.796;11.978;2023-02-28T08:37:03;5.27;;;4.87;;
25349;SDS011;13302;48.796;11.978;2023-02-28T08:39:50;5.13;;;4.73;;
25349;SDS011;13302;48.796;11.978;2023-02-28T08:42:42;5.10;;;4.60;;
25349;SDS011;13302;48.796;11.978;2023-02-28T08:45:28;5.03;;;4.63;;
25349;SDS011;13302;48.796;11.978;2023-02-28T08:48:15;4.80;;;4.40;;
25349;SDS011;13302;48.796;11.978;2023-02-28T08:51:06;5.33;;;4.93;;
25349;SDS011;13302;48.796;11.978;2023-02-28T08:53:57;5.30;;;4.80;;
25349;SDS011;13302;48.796;11.978;2023-02-28T08:56:46;5.10;;;4.60;;
25349;SDS011;13302;48.796;11.978;2023-02-28T08:59:33;4.80;;;4.43;;
25349;SDS011;13302;48.796;11.978;2023-02-28T09:02:20;5.33;;;4.83;;
25349;SDS011;13302;48.796;11.978;2023-02-28T09:05:08;5.03;;;4.63;;
25349;SDS011;13302;48.796;11.978;2023-02-28T09:07:55;5.03;;;4.63;;
25349;SDS011;13302;48.796;11.978;2023-02-28T09:10:42;5.30;;;4.80;;
25349;SDS011;13302;48.796;11.978;2023-02-28T09:13:29;5.20;;;4.80;;
25349;SDS011;13302;48.796;11.978;2023-02-28T09:16:17;5.20;;;4.80;;
25349;SDS011;13302;48.796;11.978;2023-02-28T09:19:04;5.13;;;4.63;;
25349;SDS011;13302;48.796;11.978;2023-02-28T09:21:51;4.80;;;4.40;;
25349;SDS011;13302;48.796;11.978;2023-02-28T09:24:39;5.13;;;4.60;;
25349;SDS011;13302;48.796;11.978;2023-02-28T09:27:26;5.40;;;4.90;;
25349;SDS011;13302;48.796;11.978;2023-02-28T09:30:14;4.60;;;4.23;;
25349;SDS011;13302;48.796;11.978;2023-02-28T09:33:01;6.27;;;4.83;;
25349;SDS011;13302;48.796;11.978;2023-02-28T09:35:56;5.37;;;4.87;;
25349;SDS011;13302;48.796;11.978;2023-02-28T09:38:49;5.50;;;5.00;;
25349;SDS011;13302;48.796;11.978;2023-02-28T09:41:39;4.80;;;4.40;;
25349;SDS011;13302;48.796;11.978;2023-02-28T09:44:38;4.83;;;4.43;;
25349;SDS011;13302;48.796;11.978;2023-02-28T09:47:34;4.93;;;4.53;;
25349;SDS011;13302;48.796;11.978;2023-02-28T09:53:34;4.80;;;4.40;;
25349;SDS011;13302;48.796;11.978;2023-02-28T09:56:25;5.10;;;4.70;;
25349;SDS011;13302;48.796;11.978;2023-02-28T10:02:35;5.00;;;4.60;;
25349;SDS011;13302;48.796;11.978;2023-02-28T10:05:55;5.30;;;4.80;;
25349;SDS011;13302;48.796;11.978;2023-02-28T10:08:56;5.43;;;4.93;;
25349;SDS011;13302;48.796;11.978;2023-02-28T10:11:48;4.93;;;4.53;;
25349;SDS011;13302;48.796;11.978;2023-02-28T10:14:40;5.53;;;5.03;;
25349;SDS011;13302;48.796;11.978;2023-02-28T10:17:38;5.43;;;4.93;;
25349;SDS011;13302;48.796;11.978;2023-02-28T10:20:41;5.80;;;4.80;;
25349;SDS011;13302;48.796;11.978;2023-02-28T10:23:36;4.70;;;4.30;;
25349;SDS011;13302;48.796;11.978;2023-02-28T10:26:24;5.33;;;4.83;;
25349;SDS011;13302;48.796;11.978;2023-02-28T10:29:16;5.10;;;4.70;;
25349;SDS011;13302;48.796;11.978;2023-02-28T10:32:03;5.00;;;4.60;;
25349;SDS011;13302;48.796;11.978;2023-02-28T10:34:51;5.07;;;4.63;;
25349;SDS011;13302;48.796;11.978;2023-02-28T10:37:44;5.33;;;4.80;;
25349;SDS011;13302;48.796;11.978;2023-02-28T10:40:35;5.10;;;4.70;;
25349;SDS011;13302;48.796;11.978;2023-02-28T10:43:22;4.90;;;4.50;;
25349;SDS011;13302;48.796;11.978;2023-02-28T10:46:12;5.23;;;4.73;;
25349;SDS011;13302;48.796;11.978;2023-02-28T10:49:23;5.10;;;4.70;;
25349;SDS011;13302;48.796;11.978;2023-02-28T10:52:12;5.50;;;5.00;;
25349;SDS011;13302;48.796;11.978;2023-02-28T10:55:15;4.90;;;4.47;;
25349;SDS011;13302;48.796;11.978;2023-02-28T10:58:22;5.00;;;4.57;;
25349;SDS011;13302;48.796;11.978;2023-02-28T11:01:17;5.30;;;4.80;;
25349;SDS011;13302;48.796;11.978;2023-02-28T11:04:17;5.33;;;4.83;;
25349;SDS011;13302;48.796;11.978;2023-02-28T11:07:06;5.27;;;4.87;;
25349;SDS011;13302;48.796;11.978;2023-02-28T11:10:16;5.00;;;4.60;;
25349;SDS011;13302;48.796;11.978;2023-02-28T11:13:12;5.07;;;4.67;;
25349;SDS011;13302;48.796;11.978;2023-02-28T11:16:10;4.90;;;4.40;;
25349;SDS011;13302;48.796;11.978;2023-02-28T11:18:58;5.07;;;4.57;;
25349;SDS011;13302;48.796;11.978;2023-02-28T11:21:56;4.97;;;4.57;;
25349;SDS011;13302;48.796;11.978;2023-02-28T11:24:51;5.13;;;4.70;;
25349;SDS011;13302;48.796;11.978;2023-02-28T11:27:42;5.13;;;4.67;;
25349;SDS011;13302;48.796;11.978;2023-02-28T11:30:37;5.40;;;4.67;;
25349;SDS011;13302;48.796;11.978;2023-02-28T11:33:29;5.13;;;4.63;;
25349;SDS011;13302;48.796;11.978;2023-02-28T11:36:30;4.77;;;4.40;;
25349;SDS011;13302;48.796;11.978;2023-02-28T11:39:18;5.97;;;4.97;;
25349;SDS011;13302;48.796;11.978;2023-02-28T11:42:22;4.80;;;4.40;;
25349;SDS011;13302;48.796;11.978;2023-02-28T11:48:39;4.43;;;4.13;;
25349;SDS011;13302;48.796;11.978;2023-02-28T11:51:47;5.13;;;4.37;;
25349;SDS011;13302;48.796;11.978;2023-02-28T12:03:44;4.70;;;4.30;;
25349;SDS011;13302;48.796;11.978;2023-02-28T12:09:47;4.47;;;4.03;;
25349;SDS011;13302;48.796;11.978;2023-02-28T12:22:12;4.47;;;4.07;;
25349;SDS011;13302;48.796;11.978;2023-02-28T12:28:38;5.50;;;5.00;;
25349;SDS011;13302;48.796;11.978;2023-02-28T12:31:30;4.97;;;4.47;;
25349;SDS011;13302;48.796;11.978;2023-02-28T12:34:25;4.43;;;4.10;;
25349;SDS011;13302;48.796;11.978;2023-02-28T12:37:21;4.97;;;4.50;;
25349;SDS011;13302;48.796;11.978;2023-02-28T12:40:18;4.57;;;4.17;;
25349;SDS011;13302;48.796;11.978;2023-02-28T12:43:07;4.50;;;3.97;;
25349;SDS011;13302;48.796;11.978;2023-02-28T12:46:01;4.60;;;4.20;;
25349;SDS011;13302;48.796;11.978;2023-02-28T12:48:57;5.00;;;4.60;;
25349;SDS011;13302;48.796;11.978;2023-02-28T12:51:47;4.67;;;4.27;;
25349;SDS011;13302;48.796;11.978;2023-02-28T12:54:40;4.73;;;4.33;;
25349;SDS011;13302;48.796;11.978;2023-02-28T12:57:59;5.23;;;4.70;;
25349;SDS011;13302;48.796;11.978;2023-02-28T13:10:03;4.67;;;4.27;;
25349;SDS011;13302;48.796;11.978;2023-02-28T13:12:53;4.63;;;4.27;;
25349;SDS011;13302;48.796;11.978;2023-02-28T13:15:41;5.30;;;4.80;;
25349;SDS011;13302;48.796;11.978;2023-02-28T13:18:45;4.60;;;4.17;;
25349;SDS011;13302;48.796;11.978;2023-02-28T13:21:33;5.27;;;4.77;;
25349;SDS011;13302;48.796;11.978;2023-02-28T13:24:42;5.03;;;4.33;;
25349;SDS011;13302;48.796;11.978;2023-02-28T13:27:33;4.13;;;3.73;;
25349;SDS011;13302;48.796;11.978;2023-02-28T13:36:36;4.73;;;4.33;;
25349;SDS011;13302;48.796;11.978;2023-02-28T13:42:31;5.10;;;4.70;;
25349;SDS011;13302;48.796;11.978;2023-02-28T13:45:22;4.40;;;4.10;;
25349;SDS011;13302;48.796;11.978;2023-02-28T13:48:15;4.43;;;4.03;;
25349;SDS011;13302;48.796;11.978;2023-02-28T14:04:37;8.97;;;6.73;;
25349;SDS011;13302;48.796;11.978;2023-02-28T14:07:43;5.73;;;5.23;;
25349;SDS011;13302;48.796;11.978;2023-02-28T14:10:46;5.70;;;5.20;;
25349;SDS011;13302;48.796;11.978;2023-02-28T14:13:37;5.93;;;5.43;;
25349;SDS011;13302;48.796;11.978;2023-02-28T14:16:40;5.93;;;5.43;;
25349;SDS011;13302;48.796;11.978;2023-02-28T14:19:32;6.33;;;5.83;;
25349;SDS011;13302;48.796;11.978;2023-02-28T14:25:45;6.60;;;6.10;;
25349;SDS011;13302;48.796;11.978;2023-02-28T14:32:26;5.83;;;5.33;;
25349;SDS011;13302;48.796;11.978;2023-02-28T14:38:24;5.97;;;5.47;;
25349;SDS011;13302;48.796;11.978;2023-02-28T14:41:16;5.90;;;5.40;;
25349;SDS011;13302;48.796;11.978;2023-02-28T14:44:14;6.90;;;6.30;;
25349;SDS011;13302;48.796;11.978;2023-02-28T14:47:02;6.13;;;5.63;;
25349;SDS011;13302;48.796;11.978;2023-02-28T14:49:52;6.37;;;5.87;;
25349;SDS011;13302;48.796;11.978;2023-02-28T14:52:42;6.27;;;5.67;;
25349;SDS011;13302;48.796;11.978;2023-02-28T14:55:33;6.43;;;5.70;;
25349;SDS011;13302;48.796;11.978;2023-02-28T14:58:24;6.50;;;5.47;;
25349;SDS011;13302;48.796;11.978;2023-02-28T15:01:18;5.80;;;5.30;;
25349;SDS011;13302;48.796;11.978;2023-02-28T15:04:14;6.40;;;5.87;;
25349;SDS011;13302;48.796;11.978;2023-02-28T15:07:14;6.70;;;6.07;;
25349;SDS011;13302;48.796;11.978;2023-02-28T15:13:13;6.43;;;5.83;;
25349;SDS011;13302;48.796;11.978;2023-02-28T15:16:02;6.10;;;5.60;;
25349;SDS011;13302;48.796;11.978;2023-02-28T15:18:52;6.53;;;5.93;;
25349;SDS011;13302;48.796;11.978;2023-02-28T15:21:45;6.80;;;6.10;;
25349;SDS011;13302;48.796;11.978;2023-02-28T15:24:37;6.80;;;5.50;;
25349;SDS011;13302;48.796;11.978;2023-02-28T15:27:29;6.57;;;5.93;;
25349;SDS011;13302;48.796;11.978;2023-02-28T15:30:26;6.17;;;5.67;;
25349;SDS011;13302;48.796;11.978;2023-02-28T15:36:06;6.40;;;5.80;;
25349;SDS011;13302;48.796;11.978;2023-02-28T15:38:57;6.10;;;5.60;;
25349;SDS011;13302;48.796;11.978;2023-02-28T15:42:18;7.90;;;6.43;;
25349;SDS011;13302;48.796;11.978;2023-02-28T15:45:26;6.03;;;5.53;;
25349;SDS011;13302;48.796;11.978;2023-02-28T15:48:37;6.43;;;5.83;;
25349;SDS011;13302;48.796;11.978;2023-02-28T15:51:33;7.90;;;6.27;;
25349;SDS011;13302;48.796;11.978;2023-02-28T15:54:24;8.10;;;7.30;;
25349;SDS011;13302;48.796;11.978;2023-02-28T15:57:22;12.17;;;9.00;;
25349;SDS011;13302;48.796;11.978;2023-02-28T16:00:13;10.70;;;8.77;;
25349;SDS011;13302;48.796;11.978;2023-02-28T16:03:21;7.90;;;6.87;;
25349;SDS011;13302;48.796;11.978;2023-02-28T16:09:09;9.43;;;8.33;;
25349;SDS011;13302;48.796;11.978;2023-02-28T16:12:02;8.90;;;8.00;;
25349;SDS011;13302;48.796;11.978;2023-02-28T16:14:50;7.50;;;6.80;;
25349;SDS011;13302;48.796;11.978;2023-02-28T16:17:39;8.10;;;7.30;;
25349;SDS011;13302;48.796;11.978;2023-02-28T16:20:27;6.53;;;5.93;;
25349;SDS011;13302;48.796;11.978;2023-02-28T16:23:17;7.27;;;6.57;;
25349;SDS011;13302;48.796;11.978;2023-02-28T16:26:04;7.17;;;6.50;;
25349;SDS011;13302;48.796;11.978;2023-02-28T16:28:52;8.00;;;6.43;;
25349;SDS011;13302;48.796;11.978;2023-02-28T16:31:40;7.43;;;6.73;;
25349;SDS011;13302;48.796;11.978;2023-02-28T16:34:27;6.73;;;6.13;;
25349;SDS011;13302;48.796;11.978;2023-02-28T16:37:16;8.27;;;7.50;;
25349;SDS011;13302;48.796;11.978;2023-02-28T16:40:04;7.33;;;6.63;;
25349;SDS011;13302;48.796;11.978;2023-02-28T16:42:52;7.50;;;6.80;;
25349;SDS011;13302;48.796;11.978;2023-02-28T16:45:41;7.07;;;6.40;;
25349;SDS011;13302;48.796;11.978;2023-02-28T16:48:29;7.30;;;6.60;;
25349;SDS011;13302;48.796;11.978;2023-02-28T16:51:17;7.23;;;6.63;;
25349;SDS011;13302;48.796;11.978;2023-02-28T16:54:04;8.63;;;7.77;;
25349;SDS011;13302;48.796;11.978;2023-02-28T16:56:51;8.30;;;7.50;;
25349;SDS011;13302;48.796;11.978;2023-02-28T16:59:39;7.70;;;7.00;;
25349;SDS011;13302;48.796;11.978;2023-02-28T17:02:26;6.97;;;6.37;;
25349;SDS011;13302;48.796;11.978;2023-02-28T17:05:14;7.57;;;6.87;;
25349;SDS011;13302;48.796;11.978;2023-02-28T17:08:01;7.17;;;6.30;;
25349;SDS011;13302;48.796;11.978;2023-02-28T17:10:48;7.50;;;6.80;;
25349;SDS011;13302;48.796;11.978;2023-02-28T17:13:35;9.00;;;7.27;;
25349;SDS011;13302;48.796;11.978;2023-02-28T17:16:32;7.83;;;7.03;;
25349;SDS011;13302;48.796;11.978;2023-02-28T17:19:21;7.20;;;6.60;;
25349;SDS011;13302;48.796;11.978;2023-02-28T17:22:08;9.70;;;7.43;;
25349;SDS011;13302;48.796;11.978;2023-02-28T17:24:55;9.60;;;8.60;;
25349;SDS011;13302;48.796;11.978;2023-02-28T17:27:44;8.03;;;7.33;;
25349;SDS011;13302;48.796;11.978;2023-02-28T17:30:32;9.40;;;8.10;;
25349;SDS011;13302;48.796;11.978;2023-02-28T17:33:20;9.77;;;8.77;;
25349;SDS011;13302;48.796;11.978;2023-02-28T17:36:14;9.13;;;8.23;;
25349;SDS011;13302;48.796;11.978;2023-02-28T17:39:03;8.77;;;7.97;;
25349;SDS011;13302;48.796;11.978;2023-02-28T17:41:55;8.20;;;7.50;;
25349;SDS011;13302;48.796;11.978;2023-02-28T17:44:43;9.50;;;8.57;;
25349;SDS011;13302;48.796;11.978;2023-02-28T17:47:29;8.33;;;7.63;;
25349;SDS011;13302;48.796;11.978;2023-02-28T17:50:19;10.10;;;9.10;;
25349;SDS011;13302;48.796;11.978;2023-02-28T17:53:08;9.83;;;8.93;;
25349;SDS011;13302;48.796;11.978;2023-02-28T17:55:55;10.07;;;9.17;;
25349;SDS011;13302;48.796;11.978;2023-02-28T17:58:42;9.47;;;8.57;;
25349;SDS011;13302;48.796;11.978;2023-02-28T18:01:29;8.90;;;8.17;;
25349;SDS011;13302;48.796;11.978;2023-02-28T18:04:16;8.93;;;8.13;;
25349;SDS011;13302;48.796;11.978;2023-02-28T18:07:03;9.37;;;8.47;;
25349;SDS011;13302;48.796;11.978;2023-02-28T18:09:50;9.30;;;8.47;;
25349;SDS011;13302;48.796;11.978;2023-02-28T18:12:37;9.70;;;8.70;;
25349;SDS011;13302;48.796;11.978;2023-02-28T18:15:24;9.50;;;8.40;;
25349;SDS011;13302;48.796;11.978;2023-02-28T18:18:11;9.77;;;8.77;;
25349;SDS011;13302;48.796;11.978;2023-02-28T18:20:58;8.37;;;7.50;;
25349;SDS011;13302;48.796;11.978;2023-02-28T18:23:46;8.83;;;8.00;;
25349;SDS011;13302;48.796;11.978;2023-02-28T18:26:34;10.10;;;9.07;;
25349;SDS011;13302;48.796;11.978;2023-02-28T18:29:23;9.17;;;8.33;;
25349;SDS011;13302;48.796;11.978;2023-02-28T18:32:12;9.33;;;8.43;;
25349;SDS011;13302;48.796;11.978;2023-02-28T18:34:59;8.73;;;7.93;;
25349;SDS011;13302;48.796;11.978;2023-02-28T18:37:46;8.43;;;7.73;;